sensor_id;sensor_type;location;lat;lon;timestamp;P1;durP1;ratioP1;P2;durP2;ratioP2
64498;SDS011;51087;55.718;21.122;2023-09-19T00:00:59;9.38;;;7.20;;
64498;SDS011;51087;55.718;21.122;2023-09-19T00:03:24;11.32;;;6.97;;
64498;SDS011;51087;55.718;21.122;2023-09-19T00:05:53;14.43;;;7.57;;
64498;SDS011;51087;55.718;21.122;2023-09-19T00:08:20;10.57;;;7.03;;
64498;SDS011;51087;55.718;21.122;2023-09-19T00:10:49;12.88;;;6.88;;
64498;SDS011;51087;55.718;21.122;2023-09-19T00:13:15;12.32;;;7.60;;
64498;SDS011;51087;55.718;21.122;2023-09-19T00:15:41;14.73;;;8.05;;
64498;SDS011;51087;55.718;21.122;2023-09-19T00:18:14;22.20;;;9.93;;
64498;SDS011;51087;55.718;21.122;2023-09-19T00:20:40;13.55;;;7.57;;
64498;SDS011;51087;55.718;21.122;2023-09-19T00:23:07;10.90;;;7.07;;
64498;SDS011;51087;55.718;21.122;2023-09-19T00:25:35;12.18;;;7.38;;
64498;SDS011;51087;55.718;21.122;2023-09-19T00:28:04;11.30;;;6.70;;
64498;SDS011;51087;55.718;21.122;2023-09-19T00:30:31;15.15;;;7.18;;
64498;SDS011;51087;55.718;21.122;2023-09-19T00:32:58;11.02;;;6.85;;
64498;SDS011;51087;55.718;21.122;2023-09-19T00:35:23;10.02;;;7.00;;
64498;SDS011;51087;55.718;21.122;2023-09-19T00:37:52;10.43;;;6.97;;
64498;SDS011;51087;55.718;21.122;2023-09-19T00:40:18;11.15;;;7.57;;
64498;SDS011;51087;55.718;21.122;2023-09-19T00:42:47;13.48;;;7.88;;
64498;SDS011;51087;55.718;21.122;2023-09-19T00:45:14;14.27;;;7.82;;
64498;SDS011;51087;55.718;21.122;2023-09-19T00:47:43;10.07;;;7.03;;
64498;SDS011;51087;55.718;21.122;2023-09-19T00:50:11;14.88;;;7.90;;
64498;SDS011;51087;55.718;21.122;2023-09-19T00:52:39;13.75;;;7.57;;
64498;SDS011;51087;55.718;21.122;2023-09-19T00:55:07;13.25;;;7.43;;
64498;SDS011;51087;55.718;21.122;2023-09-19T00:57:35;13.45;;;8.30;;
64498;SDS011;51087;55.718;21.122;2023-09-19T01:00:03;10.30;;;7.97;;
64498;SDS011;51087;55.718;21.122;2023-09-19T01:02:33;11.20;;;7.75;;
64498;SDS011;51087;55.718;21.122;2023-09-19T01:04:59;11.27;;;7.53;;
64498;SDS011;51087;55.718;21.122;2023-09-19T01:07:29;13.30;;;7.97;;
64498;SDS011;51087;55.718;21.122;2023-09-19T01:09:56;9.15;;;7.72;;
64498;SDS011;51087;55.718;21.122;2023-09-19T01:12:28;16.30;;;8.40;;
64498;SDS011;51087;55.718;21.122;2023-09-19T01:15:28;13.45;;;7.50;;
64498;SDS011;51087;55.718;21.122;2023-09-19T01:20:41;11.98;;;7.93;;
64498;SDS011;51087;55.718;21.122;2023-09-19T01:23:20;12.27;;;8.30;;
64498;SDS011;51087;55.718;21.122;2023-09-19T01:26:05;10.80;;;7.95;;
64498;SDS011;51087;55.718;21.122;2023-09-19T01:28:43;15.13;;;8.00;;
64498;SDS011;51087;55.718;21.122;2023-09-19T01:31:19;12.30;;;8.65;;
64498;SDS011;51087;55.718;21.122;2023-09-19T01:33:56;15.20;;;8.80;;
64498;SDS011;51087;55.718;21.122;2023-09-19T01:36:29;13.07;;;8.48;;
64498;SDS011;51087;55.718;21.122;2023-09-19T01:38:59;11.30;;;8.25;;
64498;SDS011;51087;55.718;21.122;2023-09-19T01:42:18;10.20;;;8.38;;
64498;SDS011;51087;55.718;21.122;2023-09-19T01:44:48;15.48;;;8.05;;
64498;SDS011;51087;55.718;21.122;2023-09-19T01:52:31;12.93;;;9.13;;
64498;SDS011;51087;55.718;21.122;2023-09-19T01:55:09;13.80;;;9.13;;
64498;SDS011;51087;55.718;21.122;2023-09-19T01:57:46;11.80;;;8.55;;
64498;SDS011;51087;55.718;21.122;2023-09-19T02:00:18;11.98;;;8.40;;
64498;SDS011;51087;55.718;21.122;2023-09-19T02:02:47;15.30;;;8.65;;
64498;SDS011;51087;55.718;21.122;2023-09-19T02:05:13;17.75;;;8.40;;
64498;SDS011;51087;55.718;21.122;2023-09-19T02:07:47;12.65;;;8.75;;
64498;SDS011;51087;55.718;21.122;2023-09-19T02:10:13;18.55;;;8.90;;
64498;SDS011;51087;55.718;21.122;2023-09-19T02:12:39;11.32;;;9.13;;
64498;SDS011;51087;55.718;21.122;2023-09-19T02:15:04;17.60;;;8.82;;
64498;SDS011;51087;55.718;21.122;2023-09-19T02:17:32;15.25;;;8.65;;
64498;SDS011;51087;55.718;21.122;2023-09-19T02:19:57;14.20;;;8.70;;
64498;SDS011;51087;55.718;21.122;2023-09-19T02:22:24;11.68;;;8.75;;
64498;SDS011;51087;55.718;21.122;2023-09-19T02:24:49;13.23;;;8.87;;
64498;SDS011;51087;55.718;21.122;2023-09-19T02:27:16;13.20;;;8.82;;
64498;SDS011;51087;55.718;21.122;2023-09-19T02:29:42;14.05;;;9.10;;
64498;SDS011;51087;55.718;21.122;2023-09-19T02:32:08;13.68;;;9.10;;
64498;SDS011;51087;55.718;21.122;2023-09-19T02:34:36;12.70;;;8.73;;
64498;SDS011;51087;55.718;21.122;2023-09-19T02:37:04;19.58;;;8.65;;
64498;SDS011;51087;55.718;21.122;2023-09-19T02:39:33;12.65;;;9.30;;
64498;SDS011;51087;55.718;21.122;2023-09-19T02:42:00;16.23;;;9.80;;
64498;SDS011;51087;55.718;21.122;2023-09-19T02:44:25;13.43;;;9.00;;
64498;SDS011;51087;55.718;21.122;2023-09-19T02:46:51;14.45;;;9.15;;
64498;SDS011;51087;55.718;21.122;2023-09-19T02:49:16;18.08;;;9.57;;
64498;SDS011;51087;55.718;21.122;2023-09-19T02:51:43;13.05;;;9.32;;
64498;SDS011;51087;55.718;21.122;2023-09-19T02:54:09;15.18;;;9.68;;
64498;SDS011;51087;55.718;21.122;2023-09-19T02:56:35;12.98;;;9.63;;
64498;SDS011;51087;55.718;21.122;2023-09-19T02:59:01;14.60;;;9.80;;
64498;SDS011;51087;55.718;21.122;2023-09-19T03:01:27;11.82;;;8.93;;
64498;SDS011;51087;55.718;21.122;2023-09-19T03:03:53;16.02;;;9.23;;
64498;SDS011;51087;55.718;21.122;2023-09-19T03:06:19;13.88;;;9.23;;
64498;SDS011;51087;55.718;21.122;2023-09-19T03:08:45;13.40;;;9.25;;
64498;SDS011;51087;55.718;21.122;2023-09-19T03:11:12;14.27;;;9.98;;
64498;SDS011;51087;55.718;21.122;2023-09-19T03:13:40;14.60;;;9.73;;
64498;SDS011;51087;55.718;21.122;2023-09-19T03:16:06;17.00;;;9.95;;
64498;SDS011;51087;55.718;21.122;2023-09-19T03:18:33;16.67;;;9.15;;
64498;SDS011;51087;55.718;21.122;2023-09-19T03:20:59;13.88;;;9.65;;
64498;SDS011;51087;55.718;21.122;2023-09-19T03:23:28;17.30;;;9.55;;
64498;SDS011;51087;55.718;21.122;2023-09-19T03:25:56;14.20;;;9.60;;
64498;SDS011;51087;55.718;21.122;2023-09-19T03:28:23;14.00;;;9.60;;
64498;SDS011;51087;55.718;21.122;2023-09-19T03:30:59;14.43;;;9.32;;
64498;SDS011;51087;55.718;21.122;2023-09-19T03:33:28;16.13;;;9.77;;
64498;SDS011;51087;55.718;21.122;2023-09-19T03:35:53;18.17;;;9.82;;
64498;SDS011;51087;55.718;21.122;2023-09-19T03:38:19;13.77;;;9.25;;
64498;SDS011;51087;55.718;21.122;2023-09-19T03:40:46;15.88;;;10.00;;
64498;SDS011;51087;55.718;21.122;2023-09-19T03:43:12;15.70;;;9.40;;
64498;SDS011;51087;55.718;21.122;2023-09-19T03:45:37;16.15;;;9.85;;
64498;SDS011;51087;55.718;21.122;2023-09-19T03:48:08;15.45;;;9.88;;
64498;SDS011;51087;55.718;21.122;2023-09-19T03:50:36;15.27;;;10.15;;
64498;SDS011;51087;55.718;21.122;2023-09-19T03:53:02;16.58;;;10.02;;
64498;SDS011;51087;55.718;21.122;2023-09-19T03:55:28;14.30;;;9.57;;
64498;SDS011;51087;55.718;21.122;2023-09-19T03:57:55;19.83;;;10.13;;
64498;SDS011;51087;55.718;21.122;2023-09-19T04:00:21;14.52;;;9.95;;
64498;SDS011;51087;55.718;21.122;2023-09-19T04:02:48;16.75;;;10.23;;
64498;SDS011;51087;55.718;21.122;2023-09-19T04:05:14;20.02;;;10.43;;
64498;SDS011;51087;55.718;21.122;2023-09-19T04:07:39;22.95;;;10.50;;
64498;SDS011;51087;55.718;21.122;2023-09-19T04:10:05;20.25;;;10.25;;
64498;SDS011;51087;55.718;21.122;2023-09-19T04:12:33;13.23;;;9.20;;
64498;SDS011;51087;55.718;21.122;2023-09-19T04:14:59;16.58;;;9.07;;
64498;SDS011;51087;55.718;21.122;2023-09-19T04:17:24;13.75;;;9.73;;
64498;SDS011;51087;55.718;21.122;2023-09-19T04:19:50;16.63;;;9.63;;
64498;SDS011;51087;55.718;21.122;2023-09-19T04:22:15;19.92;;;10.43;;
64498;SDS011;51087;55.718;21.122;2023-09-19T04:24:40;19.33;;;10.20;;
64498;SDS011;51087;55.718;21.122;2023-09-19T04:27:07;15.95;;;10.30;;
64498;SDS011;51087;55.718;21.122;2023-09-19T04:29:40;22.05;;;11.02;;
64498;SDS011;51087;55.718;21.122;2023-09-19T04:32:06;20.33;;;10.57;;
64498;SDS011;51087;55.718;21.122;2023-09-19T04:34:32;22.45;;;10.27;;
64498;SDS011;51087;55.718;21.122;2023-09-19T04:37:01;15.65;;;10.30;;
64498;SDS011;51087;55.718;21.122;2023-09-19T04:39:27;14.90;;;10.18;;
64498;SDS011;51087;55.718;21.122;2023-09-19T04:41:53;19.20;;;10.52;;
64498;SDS011;51087;55.718;21.122;2023-09-19T04:44:18;22.08;;;10.77;;
64498;SDS011;51087;55.718;21.122;2023-09-19T04:46:44;16.85;;;10.60;;
64498;SDS011;51087;55.718;21.122;2023-09-19T04:49:11;16.23;;;10.40;;
64498;SDS011;51087;55.718;21.122;2023-09-19T04:51:37;19.33;;;10.43;;
64498;SDS011;51087;55.718;21.122;2023-09-19T04:54:02;19.38;;;10.60;;
64498;SDS011;51087;55.718;21.122;2023-09-19T04:56:28;20.55;;;10.88;;
64498;SDS011;51087;55.718;21.122;2023-09-19T04:58:54;19.30;;;10.13;;
64498;SDS011;51087;55.718;21.122;2023-09-19T05:01:19;17.75;;;11.45;;
64498;SDS011;51087;55.718;21.122;2023-09-19T05:03:47;15.35;;;10.05;;
64498;SDS011;51087;55.718;21.122;2023-09-19T05:06:17;16.67;;;10.68;;
64498;SDS011;51087;55.718;21.122;2023-09-19T05:08:43;15.25;;;10.60;;
64498;SDS011;51087;55.718;21.122;2023-09-19T05:11:08;18.92;;;10.88;;
64498;SDS011;51087;55.718;21.122;2023-09-19T05:13:34;13.38;;;10.57;;
64498;SDS011;51087;55.718;21.122;2023-09-19T05:16:00;17.50;;;10.60;;
64498;SDS011;51087;55.718;21.122;2023-09-19T05:18:27;18.20;;;10.95;;
64498;SDS011;51087;55.718;21.122;2023-09-19T05:20:53;16.92;;;10.57;;
64498;SDS011;51087;55.718;21.122;2023-09-19T05:23:21;21.27;;;10.73;;
64498;SDS011;51087;55.718;21.122;2023-09-19T05:25:47;18.90;;;11.15;;
64498;SDS011;51087;55.718;21.122;2023-09-19T05:28:12;21.95;;;10.98;;
64498;SDS011;51087;55.718;21.122;2023-09-19T05:30:40;15.75;;;9.88;;
64498;SDS011;51087;55.718;21.122;2023-09-19T05:33:06;21.05;;;11.05;;
64498;SDS011;51087;55.718;21.122;2023-09-19T05:35:32;17.48;;;10.55;;
64498;SDS011;51087;55.718;21.122;2023-09-19T05:37:58;15.65;;;9.75;;
64498;SDS011;51087;55.718;21.122;2023-09-19T05:40:24;24.77;;;10.60;;
64498;SDS011;51087;55.718;21.122;2023-09-19T05:42:50;19.98;;;10.55;;
64498;SDS011;51087;55.718;21.122;2023-09-19T05:45:15;17.30;;;10.32;;
64498;SDS011;51087;55.718;21.122;2023-09-19T05:47:47;20.25;;;11.50;;
64498;SDS011;51087;55.718;21.122;2023-09-19T05:50:13;18.27;;;11.02;;
64498;SDS011;51087;55.718;21.122;2023-09-19T05:52:40;19.70;;;10.50;;
64498;SDS011;51087;55.718;21.122;2023-09-19T05:55:06;14.95;;;9.38;;
64498;SDS011;51087;55.718;21.122;2023-09-19T05:57:35;16.35;;;10.50;;
64498;SDS011;51087;55.718;21.122;2023-09-19T06:00:04;20.85;;;10.60;;
64498;SDS011;51087;55.718;21.122;2023-09-19T06:02:35;21.83;;;12.13;;
64498;SDS011;51087;55.718;21.122;2023-09-19T06:05:05;17.02;;;10.35;;
64498;SDS011;51087;55.718;21.122;2023-09-19T06:07:31;14.70;;;10.48;;
64498;SDS011;51087;55.718;21.122;2023-09-19T06:10:02;17.77;;;9.73;;
64498;SDS011;51087;55.718;21.122;2023-09-19T06:12:32;20.27;;;10.57;;
64498;SDS011;51087;55.718;21.122;2023-09-19T06:15:00;21.08;;;10.65;;
64498;SDS011;51087;55.718;21.122;2023-09-19T06:17:25;18.23;;;10.15;;
64498;SDS011;51087;55.718;21.122;2023-09-19T06:19:52;16.35;;;10.43;;
64498;SDS011;51087;55.718;21.122;2023-09-19T06:22:18;29.23;;;11.27;;
64498;SDS011;51087;55.718;21.122;2023-09-19T06:24:44;23.65;;;10.43;;
64498;SDS011;51087;55.718;21.122;2023-09-19T06:27:09;24.38;;;11.25;;
64498;SDS011;51087;55.718;21.122;2023-09-19T06:29:35;22.75;;;11.23;;
64498;SDS011;51087;55.718;21.122;2023-09-19T06:32:06;16.23;;;11.27;;
64498;SDS011;51087;55.718;21.122;2023-09-19T06:34:33;19.70;;;10.38;;
64498;SDS011;51087;55.718;21.122;2023-09-19T06:36:59;19.80;;;10.18;;
64498;SDS011;51087;55.718;21.122;2023-09-19T06:39:25;20.60;;;11.82;;
64498;SDS011;51087;55.718;21.122;2023-09-19T06:41:51;23.35;;;10.73;;
64498;SDS011;51087;55.718;21.122;2023-09-19T06:44:18;20.42;;;11.45;;
64498;SDS011;51087;55.718;21.122;2023-09-19T06:46:45;19.92;;;11.07;;
64498;SDS011;51087;55.718;21.122;2023-09-19T06:49:14;22.63;;;11.10;;
64498;SDS011;51087;55.718;21.122;2023-09-19T06:51:40;19.73;;;11.38;;
64498;SDS011;51087;55.718;21.122;2023-09-19T06:54:06;18.10;;;11.18;;
64498;SDS011;51087;55.718;21.122;2023-09-19T06:56:32;17.95;;;10.88;;
64498;SDS011;51087;55.718;21.122;2023-09-19T06:58:58;19.15;;;10.52;;
64498;SDS011;51087;55.718;21.122;2023-09-19T07:01:23;17.85;;;10.02;;
64498;SDS011;51087;55.718;21.122;2023-09-19T07:03:49;16.88;;;10.73;;
64498;SDS011;51087;55.718;21.122;2023-09-19T07:06:14;24.02;;;10.18;;
64498;SDS011;51087;55.718;21.122;2023-09-19T07:08:40;14.05;;;10.20;;
64498;SDS011;51087;55.718;21.122;2023-09-19T07:11:05;25.33;;;12.77;;
64498;SDS011;51087;55.718;21.122;2023-09-19T07:13:31;17.92;;;10.20;;
64498;SDS011;51087;55.718;21.122;2023-09-19T07:15:58;21.88;;;10.70;;
64498;SDS011;51087;55.718;21.122;2023-09-19T07:18:24;17.10;;;10.50;;
64498;SDS011;51087;55.718;21.122;2023-09-19T07:20:50;16.55;;;10.48;;
64498;SDS011;51087;55.718;21.122;2023-09-19T07:23:18;21.88;;;11.13;;
64498;SDS011;51087;55.718;21.122;2023-09-19T07:25:45;17.92;;;9.80;;
64498;SDS011;51087;55.718;21.122;2023-09-19T07:28:11;18.02;;;10.73;;
64498;SDS011;51087;55.718;21.122;2023-09-19T07:30:37;18.65;;;10.82;;
64498;SDS011;51087;55.718;21.122;2023-09-19T07:33:02;25.15;;;11.07;;
64498;SDS011;51087;55.718;21.122;2023-09-19T07:35:30;20.85;;;10.32;;
64498;SDS011;51087;55.718;21.122;2023-09-19T07:37:57;18.75;;;10.52;;
64498;SDS011;51087;55.718;21.122;2023-09-19T07:40:26;17.48;;;10.50;;
64498;SDS011;51087;55.718;21.122;2023-09-19T07:42:54;16.63;;;10.85;;
64498;SDS011;51087;55.718;21.122;2023-09-19T07:45:20;19.85;;;10.93;;
64498;SDS011;51087;55.718;21.122;2023-09-19T07:47:46;16.58;;;10.88;;
64498;SDS011;51087;55.718;21.122;2023-09-19T07:50:18;18.90;;;11.25;;
64498;SDS011;51087;55.718;21.122;2023-09-19T07:52:45;20.33;;;11.73;;
64498;SDS011;51087;55.718;21.122;2023-09-19T07:55:11;19.70;;;11.50;;
64498;SDS011;51087;55.718;21.122;2023-09-19T07:57:42;18.33;;;10.85;;
64498;SDS011;51087;55.718;21.122;2023-09-19T08:00:08;19.73;;;11.07;;
64498;SDS011;51087;55.718;21.122;2023-09-19T08:02:38;17.10;;;11.75;;
64498;SDS011;51087;55.718;21.122;2023-09-19T08:05:04;20.98;;;12.20;;
64498;SDS011;51087;55.718;21.122;2023-09-19T08:07:32;18.42;;;12.55;;
64498;SDS011;51087;55.718;21.122;2023-09-19T08:09:57;18.65;;;11.82;;
64498;SDS011;51087;55.718;21.122;2023-09-19T08:12:23;17.98;;;11.73;;
64498;SDS011;51087;55.718;21.122;2023-09-19T08:14:49;18.25;;;12.15;;
64498;SDS011;51087;55.718;21.122;2023-09-19T08:17:15;18.90;;;12.32;;
64498;SDS011;51087;55.718;21.122;2023-09-19T08:19:41;19.15;;;12.63;;
64498;SDS011;51087;55.718;21.122;2023-09-19T08:22:07;17.30;;;12.10;;
64498;SDS011;51087;55.718;21.122;2023-09-19T08:24:35;19.90;;;12.77;;
64498;SDS011;51087;55.718;21.122;2023-09-19T08:27:01;17.90;;;12.02;;
64498;SDS011;51087;55.718;21.122;2023-09-19T08:29:29;19.80;;;11.45;;
64498;SDS011;51087;55.718;21.122;2023-09-19T08:31:56;21.15;;;12.65;;
64498;SDS011;51087;55.718;21.122;2023-09-19T08:34:23;18.95;;;12.82;;
64498;SDS011;51087;55.718;21.122;2023-09-19T08:36:55;18.98;;;12.13;;
64498;SDS011;51087;55.718;21.122;2023-09-19T08:39:24;20.88;;;12.63;;
64498;SDS011;51087;55.718;21.122;2023-09-19T08:41:57;21.70;;;12.45;;
64498;SDS011;51087;55.718;21.122;2023-09-19T08:44:25;20.52;;;12.60;;
64498;SDS011;51087;55.718;21.122;2023-09-19T08:46:54;26.75;;;13.07;;
64498;SDS011;51087;55.718;21.122;2023-09-19T08:49:33;20.70;;;13.00;;
64498;SDS011;51087;55.718;21.122;2023-09-19T08:52:16;22.92;;;13.88;;
64498;SDS011;51087;55.718;21.122;2023-09-19T08:54:46;24.60;;;15.32;;
64498;SDS011;51087;55.718;21.122;2023-09-19T08:57:13;26.92;;;16.38;;
64498;SDS011;51087;55.718;21.122;2023-09-19T08:59:46;28.48;;;15.52;;
64498;SDS011;51087;55.718;21.122;2023-09-19T09:02:13;18.80;;;12.27;;
64498;SDS011;51087;55.718;21.122;2023-09-19T09:04:40;21.95;;;12.02;;
64498;SDS011;51087;55.718;21.122;2023-09-19T09:07:15;20.85;;;10.40;;
64498;SDS011;51087;55.718;21.122;2023-09-19T09:09:44;21.85;;;11.20;;
64498;SDS011;51087;55.718;21.122;2023-09-19T09:12:13;24.55;;;11.65;;
64498;SDS011;51087;55.718;21.122;2023-09-19T09:14:40;24.80;;;9.10;;
64498;SDS011;51087;55.718;21.122;2023-09-19T09:17:09;20.55;;;10.13;;
64498;SDS011;51087;55.718;21.122;2023-09-19T09:19:35;17.65;;;6.65;;
64498;SDS011;51087;55.718;21.122;2023-09-19T09:22:08;18.77;;;6.78;;
64498;SDS011;51087;55.718;21.122;2023-09-19T09:24:34;11.95;;;5.60;;
64498;SDS011;51087;55.718;21.122;2023-09-19T09:27:03;15.20;;;5.50;;
64498;SDS011;51087;55.718;21.122;2023-09-19T09:29:46;11.98;;;5.90;;
64498;SDS011;51087;55.718;21.122;2023-09-19T09:32:23;12.68;;;4.22;;
64498;SDS011;51087;55.718;21.122;2023-09-19T09:37:17;16.55;;;5.13;;
64498;SDS011;51087;55.718;21.122;2023-09-19T09:39:55;14.73;;;4.90;;
64498;SDS011;51087;55.718;21.122;2023-09-19T09:45:14;19.13;;;5.65;;
64498;SDS011;51087;55.718;21.122;2023-09-19T09:47:59;22.35;;;6.05;;
64498;SDS011;51087;55.718;21.122;2023-09-19T09:50:35;19.17;;;6.90;;
64498;SDS011;51087;55.718;21.122;2023-09-19T09:53:19;20.17;;;6.05;;
64498;SDS011;51087;55.718;21.122;2023-09-19T09:58:27;20.23;;;5.05;;
64498;SDS011;51087;55.718;21.122;2023-09-19T10:00:57;16.35;;;4.80;;
64498;SDS011;51087;55.718;21.122;2023-09-19T10:03:31;15.15;;;4.80;;
64498;SDS011;51087;55.718;21.122;2023-09-19T10:06:11;16.65;;;5.93;;
64498;SDS011;51087;55.718;21.122;2023-09-19T10:09:05;18.02;;;5.63;;
64498;SDS011;51087;55.718;21.122;2023-09-19T10:11:42;16.75;;;5.35;;
64498;SDS011;51087;55.718;21.122;2023-09-19T10:14:09;9.70;;;4.88;;
64498;SDS011;51087;55.718;21.122;2023-09-19T10:16:40;11.73;;;4.45;;
64498;SDS011;51087;55.718;21.122;2023-09-19T10:19:10;15.80;;;5.55;;
64498;SDS011;51087;55.718;21.122;2023-09-19T10:21:41;21.52;;;5.93;;
64498;SDS011;51087;55.718;21.122;2023-09-19T10:24:08;19.13;;;6.30;;
64498;SDS011;51087;55.718;21.122;2023-09-19T10:26:34;15.15;;;6.65;;
64498;SDS011;51087;55.718;21.122;2023-09-19T10:29:01;21.08;;;6.72;;
64498;SDS011;51087;55.718;21.122;2023-09-19T10:31:32;19.55;;;7.15;;
64498;SDS011;51087;55.718;21.122;2023-09-19T10:34:00;13.00;;;5.63;;
64498;SDS011;51087;55.718;21.122;2023-09-19T10:36:45;21.02;;;8.18;;
64498;SDS011;51087;55.718;21.122;2023-09-19T10:39:12;20.77;;;7.97;;
64498;SDS011;51087;55.718;21.122;2023-09-19T10:41:43;20.05;;;9.13;;
64498;SDS011;51087;55.718;21.122;2023-09-19T10:44:19;20.52;;;10.00;;
64498;SDS011;51087;55.718;21.122;2023-09-19T10:46:48;29.33;;;10.18;;
64498;SDS011;51087;55.718;21.122;2023-09-19T10:49:14;19.05;;;9.43;;
64498;SDS011;51087;55.718;21.122;2023-09-19T10:51:41;31.77;;;11.52;;
64498;SDS011;51087;55.718;21.122;2023-09-19T10:54:12;22.92;;;9.50;;
64498;SDS011;51087;55.718;21.122;2023-09-19T10:56:44;24.00;;;11.53;;
64498;SDS011;51087;55.718;21.122;2023-09-19T10:59:17;25.07;;;10.43;;
64498;SDS011;51087;55.718;21.122;2023-09-19T11:01:47;18.67;;;8.57;;
64498;SDS011;51087;55.718;21.122;2023-09-19T11:04:35;20.42;;;10.27;;
64498;SDS011;51087;55.718;21.122;2023-09-19T11:07:14;24.88;;;12.88;;
64498;SDS011;51087;55.718;21.122;2023-09-19T11:09:43;24.95;;;12.07;;
64498;SDS011;51087;55.718;21.122;2023-09-19T11:12:11;20.65;;;11.93;;
64498;SDS011;51087;55.718;21.122;2023-09-19T11:14:38;23.02;;;12.73;;
64498;SDS011;51087;55.718;21.122;2023-09-19T11:30:42;18.40;;;9.27;;
64498;SDS011;51087;55.718;21.122;2023-09-19T11:33:17;12.13;;;7.43;;
64498;SDS011;51087;55.718;21.122;2023-09-19T11:46:25;14.38;;;7.05;;
64498;SDS011;51087;55.718;21.122;2023-09-19T11:48:53;10.75;;;6.30;;
64498;SDS011;51087;55.718;21.122;2023-09-19T11:51:19;7.28;;;5.13;;
64498;SDS011;51087;55.718;21.122;2023-09-19T11:54:01;12.85;;;5.45;;
64498;SDS011;51087;55.718;21.122;2023-09-19T11:56:28;12.13;;;5.65;;
64498;SDS011;51087;55.718;21.122;2023-09-19T11:58:56;12.98;;;5.00;;
64498;SDS011;51087;55.718;21.122;2023-09-19T12:01:24;8.02;;;4.72;;
64498;SDS011;51087;55.718;21.122;2023-09-19T12:03:54;8.50;;;5.20;;
64498;SDS011;51087;55.718;21.122;2023-09-19T12:06:22;6.70;;;3.88;;
64498;SDS011;51087;55.718;21.122;2023-09-19T12:08:52;14.10;;;4.90;;
64498;SDS011;51087;55.718;21.122;2023-09-19T12:11:19;11.05;;;4.20;;
64498;SDS011;51087;55.718;21.122;2023-09-19T12:13:48;9.60;;;4.57;;
64498;SDS011;51087;55.718;21.122;2023-09-19T12:16:20;10.90;;;3.65;;
64498;SDS011;51087;55.718;21.122;2023-09-19T12:18:49;9.98;;;4.20;;
64498;SDS011;51087;55.718;21.122;2023-09-19T12:21:22;10.95;;;4.28;;
64498;SDS011;51087;55.718;21.122;2023-09-19T12:26:44;8.38;;;3.35;;
64498;SDS011;51087;55.718;21.122;2023-09-19T12:29:17;6.90;;;3.63;;
64498;SDS011;51087;55.718;21.122;2023-09-19T12:31:51;10.98;;;4.00;;
64498;SDS011;51087;55.718;21.122;2023-09-19T12:37:18;8.07;;;2.72;;
64498;SDS011;51087;55.718;21.122;2023-09-19T12:39:47;6.00;;;3.08;;
64498;SDS011;51087;55.718;21.122;2023-09-19T12:42:16;14.38;;;3.35;;
64498;SDS011;51087;55.718;21.122;2023-09-19T12:44:48;7.30;;;2.95;;
64498;SDS011;51087;55.718;21.122;2023-09-19T12:47:20;8.27;;;2.53;;
64498;SDS011;51087;55.718;21.122;2023-09-19T12:55:01;5.90;;;2.67;;
64498;SDS011;51087;55.718;21.122;2023-09-19T12:57:28;9.48;;;2.88;;
64498;SDS011;51087;55.718;21.122;2023-09-19T12:59:57;10.73;;;2.58;;
64498;SDS011;51087;55.718;21.122;2023-09-19T13:02:22;11.80;;;2.83;;
64498;SDS011;51087;55.718;21.122;2023-09-19T13:04:53;11.23;;;3.38;;
64498;SDS011;51087;55.718;21.122;2023-09-19T13:07:40;7.38;;;2.45;;
64498;SDS011;51087;55.718;21.122;2023-09-19T13:10:18;12.35;;;2.50;;
64498;SDS011;51087;55.718;21.122;2023-09-19T13:12:49;11.73;;;2.80;;
64498;SDS011;51087;55.718;21.122;2023-09-19T13:15:14;6.82;;;2.53;;
64498;SDS011;51087;55.718;21.122;2023-09-19T13:17:48;9.88;;;3.08;;
64498;SDS011;51087;55.718;21.122;2023-09-19T13:20:26;6.57;;;3.15;;
64498;SDS011;51087;55.718;21.122;2023-09-19T13:22:53;7.15;;;2.95;;
64498;SDS011;51087;55.718;21.122;2023-09-19T13:25:23;7.10;;;2.78;;
64498;SDS011;51087;55.718;21.122;2023-09-19T13:27:56;8.45;;;3.05;;
64498;SDS011;51087;55.718;21.122;2023-09-19T13:30:23;10.90;;;3.10;;
64498;SDS011;51087;55.718;21.122;2023-09-19T13:32:50;8.65;;;2.45;;
64498;SDS011;51087;55.718;21.122;2023-09-19T13:35:16;10.73;;;3.10;;
64498;SDS011;51087;55.718;21.122;2023-09-19T13:37:42;6.85;;;2.45;;
64498;SDS011;51087;55.718;21.122;2023-09-19T13:40:11;6.63;;;2.33;;
64498;SDS011;51087;55.718;21.122;2023-09-19T13:42:38;10.27;;;3.22;;
64498;SDS011;51087;55.718;21.122;2023-09-19T13:45:05;6.85;;;2.70;;
64498;SDS011;51087;55.718;21.122;2023-09-19T13:47:31;9.13;;;3.47;;
64498;SDS011;51087;55.718;21.122;2023-09-19T13:49:58;9.15;;;2.20;;
64498;SDS011;51087;55.718;21.122;2023-09-19T13:52:24;5.65;;;2.25;;
64498;SDS011;51087;55.718;21.122;2023-09-19T13:54:53;9.27;;;1.98;;
64498;SDS011;51087;55.718;21.122;2023-09-19T13:57:21;4.32;;;2.03;;
64498;SDS011;51087;55.718;21.122;2023-09-19T13:59:47;12.68;;;2.20;;
64498;SDS011;51087;55.718;21.122;2023-09-19T14:02:12;6.50;;;2.03;;
64498;SDS011;51087;55.718;21.122;2023-09-19T14:04:39;6.95;;;1.95;;
64498;SDS011;51087;55.718;21.122;2023-09-19T14:07:05;7.18;;;1.70;;
64498;SDS011;51087;55.718;21.122;2023-09-19T14:09:32;6.07;;;1.55;;
64498;SDS011;51087;55.718;21.122;2023-09-19T14:11:57;11.30;;;1.70;;
64498;SDS011;51087;55.718;21.122;2023-09-19T14:14:23;5.78;;;2.50;;
64498;SDS011;51087;55.718;21.122;2023-09-19T14:16:48;8.23;;;2.58;;
64498;SDS011;51087;55.718;21.122;2023-09-19T14:19:14;8.77;;;2.22;;
64498;SDS011;51087;55.718;21.122;2023-09-19T14:21:41;9.32;;;2.13;;
64498;SDS011;51087;55.718;21.122;2023-09-19T14:24:07;11.60;;;1.83;;
64498;SDS011;51087;55.718;21.122;2023-09-19T14:26:36;8.85;;;1.63;;
64498;SDS011;51087;55.718;21.122;2023-09-19T14:29:02;7.85;;;2.08;;
64498;SDS011;51087;55.718;21.122;2023-09-19T14:31:27;2.22;;;1.17;;
64498;SDS011;51087;55.718;21.122;2023-09-19T14:33:56;8.52;;;1.70;;
64498;SDS011;51087;55.718;21.122;2023-09-19T14:36:24;7.18;;;1.90;;
64498;SDS011;51087;55.718;21.122;2023-09-19T14:38:52;4.22;;;1.63;;
64498;SDS011;51087;55.718;21.122;2023-09-19T14:41:22;8.93;;;2.05;;
64498;SDS011;51087;55.718;21.122;2023-09-19T14:43:50;9.93;;;1.80;;
64498;SDS011;51087;55.718;21.122;2023-09-19T14:46:16;4.90;;;1.90;;
64498;SDS011;51087;55.718;21.122;2023-09-19T14:48:43;9.88;;;2.10;;
64498;SDS011;51087;55.718;21.122;2023-09-19T14:51:09;9.05;;;1.63;;
64498;SDS011;51087;55.718;21.122;2023-09-19T14:53:36;4.70;;;2.15;;
64498;SDS011;51087;55.718;21.122;2023-09-19T14:56:05;6.82;;;1.85;;
64498;SDS011;51087;55.718;21.122;2023-09-19T14:58:32;8.82;;;1.77;;
64498;SDS011;51087;55.718;21.122;2023-09-19T15:01:02;3.63;;;1.40;;
64498;SDS011;51087;55.718;21.122;2023-09-19T15:03:34;6.15;;;1.77;;
64498;SDS011;51087;55.718;21.122;2023-09-19T15:06:05;5.85;;;1.70;;
64498;SDS011;51087;55.718;21.122;2023-09-19T15:08:32;6.15;;;1.60;;
64498;SDS011;51087;55.718;21.122;2023-09-19T15:11:03;5.25;;;1.55;;
64498;SDS011;51087;55.718;21.122;2023-09-19T15:13:32;2.63;;;1.27;;
64498;SDS011;51087;55.718;21.122;2023-09-19T15:15:59;5.78;;;1.67;;
64498;SDS011;51087;55.718;21.122;2023-09-19T15:18:29;5.60;;;1.60;;